Time;durP1;ratioP1;P1;durP2;ratioP2;P2;SDS_P1;SDS_P2;PMS_P1;PMS_P2;Temp;Humidity;BMP_temperature;BMP_pressure;BME280_temperature;BME280_humidity;BME280_pressure;Samples;Min_cycle;Max_cycle;Signal;HPM_P1;HPM_P2
2024/04/07 00:00:19;;;;;;;8.00;2.22;;;;;;;;;;5053496;28;20021;-69
2024/04/07 00:02:46;;;;;;;4.30;1.85;;;;;;;;;;5054563;28;20099;-69
2024/04/07 00:05:13;;;;;;;3.00;1.85;;;;;;;;;;5056734;28;20558;-70
2024/04/07 00:07:39;;;;;;;12.00;3.58;;;;;;;;;;5056989;28;20091;-70
2024/04/07 00:10:06;;;;;;;4.45;2.15;;;;;;;;;;5061380;28;20542;-70
2024/04/07 00:12:32;;;;;;;5.03;2.00;;;;;;;;;;5049986;28;20098;-70
2024/04/07 00:14:58;;;;;;;3.80;1.80;;;;;;;;;;5060045;28;20075;-71
2024/04/07 00:17:26;;;;;;;9.55;2.03;;;;;;;;;;5058046;28;20035;-70
2024/04/07 00:19:53;;;;;;;10.90;2.90;;;;;;;;;;5057132;28;20035;-71
2024/04/07 00:22:19;;;;;;;7.35;2.20;;;;;;;;;;5051464;28;20427;-70
2024/04/07 00:24:45;;;;;;;5.75;2.75;;;;;;;;;;5057200;28;20048;-70
2024/04/07 00:27:11;;;;;;;3.35;2.33;;;;;;;;;;5051056;28;21665;-70
2024/04/07 00:29:37;;;;;;;4.65;2.22;;;;;;;;;;5054468;28;20233;-71
2024/04/07 00:32:04;;;;;;;10.98;2.78;;;;;;;;;;5052520;28;20032;-70
2024/04/07 00:34:30;;;;;;;1.70;1.48;;;;;;;;;;5059195;28;20082;-70
2024/04/07 00:36:56;;;;;;;3.80;1.63;;;;;;;;;;5051578;28;20025;-70
2024/04/07 00:39:22;;;;;;;3.97;2.08;;;;;;;;;;5060293;28;20029;-70
2024/04/07 00:41:48;;;;;;;8.15;2.00;;;;;;;;;;5057370;28;20017;-70
2024/04/07 00:44:15;;;;;;;2.15;1.33;;;;;;;;;;5054361;28;20439;-70
2024/04/07 00:46:42;;;;;;;5.75;1.70;;;;;;;;;;5054655;28;20451;-70
2024/04/07 00:49:08;;;;;;;7.78;2.05;;;;;;;;;;5056467;28;20106;-70
2024/04/07 00:51:35;;;;;;;2.10;1.50;;;;;;;;;;5058268;28;20044;-70
2024/04/07 00:54:02;;;;;;;2.20;1.60;;;;;;;;;;5055975;28;20128;-71
2024/04/07 00:56:28;;;;;;;5.15;2.13;;;;;;;;;;5054409;28;20110;-71
2024/04/07 00:58:55;;;;;;;2.58;1.48;;;;;;;;;;5052842;28;20024;-70
2024/04/07 01:01:21;;;;;;;5.43;2.20;;;;;;;;;;5056312;28;20040;-69
2024/04/07 01:03:47;;;;;;;7.28;1.52;;;;;;;;;;5057017;28;20071;-71
2024/04/07 01:06:16;;;;;;;1.40;1.40;;;;;;;;;;5056062;28;20407;-71
2024/04/07 01:08:43;;;;;;;3.45;1.83;;;;;;;;;;5056418;28;20027;-70
2024/04/07 01:11:09;;;;;;;4.55;1.63;;;;;;;;;;5055855;28;20035;-70
2024/04/07 01:13:35;;;;;;;5.28;1.67;;;;;;;;;;5061882;28;20959;-72
2024/04/07 01:16:01;;;;;;;7.75;2.00;;;;;;;;;;5061216;28;20794;-72
2024/04/07 01:18:27;;;;;;;6.70;1.83;;;;;;;;;;5049822;28;20061;-70
2024/04/07 01:20:54;;;;;;;5.22;2.05;;;;;;;;;;5053504;28;20499;-69
2024/04/07 01:23:20;;;;;;;3.95;2.28;;;;;;;;;;5060854;28;20028;-70
2024/04/07 01:25:47;;;;;;;13.15;2.75;;;;;;;;;;5054377;28;20017;-70
2024/04/07 01:28:13;;;;;;;7.80;2.60;;;;;;;;;;5059674;28;20020;-71
2024/04/07 01:30:40;;;;;;;5.70;2.20;;;;;;;;;;5053589;28;20024;-70
2024/04/07 01:33:06;;;;;;;11.15;2.22;;;;;;;;;;5060086;28;20025;-72
2024/04/07 01:35:33;;;;;;;6.13;2.35;;;;;;;;;;5055828;28;20040;-71
2024/04/07 01:37:59;;;;;;;8.07;2.60;;;;;;;;;;5059125;28;20029;-71
2024/04/07 01:40:25;;;;;;;9.80;2.65;;;;;;;;;;5056162;28;20025;-71
2024/04/07 01:42:51;;;;;;;4.35;2.72;;;;;;;;;;5051983;28;20495;-70
2024/04/07 01:45:19;;;;;;;4.57;2.00;;;;;;;;;;5054724;28;20045;-70
2024/04/07 01:47:45;;;;;;;4.97;2.17;;;;;;;;;;5051687;28;20033;-70
2024/04/07 01:50:11;;;;;;;6.57;2.90;;;;;;;;;;5057211;28;20101;-71
2024/04/07 01:52:37;;;;;;;7.40;2.08;;;;;;;;;;5063902;28;20551;-70
2024/04/07 01:55:04;;;;;;;8.90;2.63;;;;;;;;;;5051556;28;20378;-71
2024/04/07 01:57:30;;;;;;;9.38;2.85;;;;;;;;;;5059542;28;20044;-70
2024/04/07 01:59:56;;;;;;;5.80;2.67;;;;;;;;;;5063687;28;20488;-70
2024/04/07 02:02:23;;;;;;;11.23;2.65;;;;;;;;;;5058388;28;20044;-70
2024/04/07 02:04:49;;;;;;;7.85;2.50;;;;;;;;;;5055523;28;20519;-69
2024/04/07 02:07:17;;;;;;;15.77;2.70;;;;;;;;;;5062628;28;20601;-70
2024/04/07 02:09:43;;;;;;;5.78;2.75;;;;;;;;;;5058787;28;20060;-71
2024/04/07 02:12:09;;;;;;;7.25;2.70;;;;;;;;;;5061883;28;20508;-70
2024/04/07 02:14:36;;;;;;;4.72;2.05;;;;;;;;;;5059287;28;20531;-70
2024/04/07 02:17:02;;;;;;;8.68;2.80;;;;;;;;;;5060233;28;20032;-70
2024/04/07 02:19:28;;;;;;;7.97;2.42;;;;;;;;;;5058537;28;20389;-71
2024/04/07 02:21:54;;;;;;;15.95;3.75;;;;;;;;;;5061628;28;20036;-70
2024/04/07 02:24:20;;;;;;;2.20;1.55;;;;;;;;;;5058727;28;20412;-70
2024/04/07 02:26:47;;;;;;;7.47;2.95;;;;;;;;;;5062411;28;20102;-71
2024/04/07 02:29:13;;;;;;;6.80;2.22;;;;;;;;;;5060909;28;20365;-70
2024/04/07 02:31:40;;;;;;;7.78;2.47;;;;;;;;;;5058978;28;20504;-70
2024/04/07 02:34:08;;;;;;;1.88;1.60;;;;;;;;;;5055477;28;20029;-70
2024/04/07 02:36:34;;;;;;;4.20;1.80;;;;;;;;;;5066315;28;20013;-71
2024/04/07 02:39:00;;;;;;;3.05;1.60;;;;;;;;;;5057020;28;20037;-70
2024/04/07 02:41:26;;;;;;;4.90;1.33;;;;;;;;;;5061578;28;20112;-70
2024/04/07 02:43:52;;;;;;;4.95;2.00;;;;;;;;;;5060291;28;20059;-70
2024/04/07 02:49:03;;;;;;;5.05;1.50;;;;;;;;;;5061974;28;20067;-70
2024/04/07 02:51:30;;;;;;;3.20;1.40;;;;;;;;;;5055365;28;20029;-71
2024/04/07 02:53:56;;;;;;;5.00;1.65;;;;;;;;;;5058371;28;20443;-70
2024/04/07 02:56:23;;;;;;;2.05;1.20;;;;;;;;;;5058207;28;20384;-70
2024/04/07 02:58:49;;;;;;;1.70;1.40;;;;;;;;;;5055628;28;20035;-70
2024/04/07 03:01:16;;;;;;;1.50;1.38;;;;;;;;;;5056602;28;20039;-70
2024/04/07 03:03:45;;;;;;;5.88;1.40;;;;;;;;;;5054774;28;20055;-70
2024/04/07 03:06:12;;;;;;;1.52;1.42;;;;;;;;;;5061392;28;20115;-70
2024/04/07 03:08:38;;;;;;;5.53;1.48;;;;;;;;;;5058838;28;20103;-72
2024/04/07 03:11:06;;;;;;;2.92;1.63;;;;;;;;;;5059649;28;20581;-71
2024/04/07 03:13:32;;;;;;;2.63;1.58;;;;;;;;;;5061181;28;20319;-70
2024/04/07 03:15:59;;;;;;;1.20;1.20;;;;;;;;;;5050503;28;20022;-69
2024/04/07 03:18:25;;;;;;;3.22;2.35;;;;;;;;;;5054255;28;20033;-70
2024/04/07 03:20:52;;;;;;;1.73;1.50;;;;;;;;;;5061137;28;20029;-70
2024/04/07 03:23:18;;;;;;;1.23;1.10;;;;;;;;;;5062984;28;20029;-70
2024/04/07 03:25:45;;;;;;;1.75;1.63;;;;;;;;;;5061670;28;20020;-70
2024/04/07 03:28:11;;;;;;;2.10;1.40;;;;;;;;;;5057459;28;20484;-70
2024/04/07 03:30:37;;;;;;;1.33;1.23;;;;;;;;;;5057927;28;20032;-70
2024/04/07 03:33:03;;;;;;;3.70;1.92;;;;;;;;;;5054911;28;20036;-70
2024/04/07 03:35:30;;;;;;;1.63;1.35;;;;;;;;;;5062622;28;20021;-70
2024/04/07 03:37:56;;;;;;;4.18;1.95;;;;;;;;;;5066028;28;20024;-70
2024/04/07 03:40:23;;;;;;;2.03;1.92;;;;;;;;;;5053182;28;20032;-70
2024/04/07 03:42:49;;;;;;;2.35;1.48;;;;;;;;;;5052969;28;20061;-70
2024/04/07 03:45:16;;;;;;;8.50;1.80;;;;;;;;;;5055991;28;20480;-70
2024/04/07 03:47:42;;;;;;;7.38;1.58;;;;;;;;;;5056954;28;20032;-71
2024/04/07 03:50:08;;;;;;;2.17;1.30;;;;;;;;;;5059812;28;20032;-70
2024/04/07 03:52:35;;;;;;;2.53;1.38;;;;;;;;;;5053951;28;20454;-71
2024/04/07 03:55:02;;;;;;;2.60;1.50;;;;;;;;;;5053842;28;20033;-71
2024/04/07 03:57:28;;;;;;;2.28;1.70;;;;;;;;;;5051741;28;20044;-63
2024/04/07 03:59:54;;;;;;;1.52;1.42;;;;;;;;;;5060518;28;20103;-62
2024/04/07 04:02:28;;;;;;;4.28;1.60;;;;;;;;;;5063811;28;20040;-62
2024/04/07 04:05:02;;;;;;;4.18;1.83;;;;;;;;;;5056318;28;20033;-62
2024/04/07 04:07:29;;;;;;;2.55;1.48;;;;;;;;;;5056820;28;20036;-62
2024/04/07 04:09:56;;;;;;;2.45;1.83;;;;;;;;;;5056630;28;20036;-63
2024/04/07 04:12:22;;;;;;;2.75;1.45;;;;;;;;;;5050696;28;20032;-63
2024/04/07 04:14:56;;;;;;;3.38;1.60;;;;;;;;;;5052304;28;20028;-62
2024/04/07 04:17:23;;;;;;;2.95;2.25;;;;;;;;;;5055155;28;20071;-63
2024/04/07 04:19:49;;;;;;;1.67;1.58;;;;;;;;;;5059059;28;20115;-62
2024/04/07 04:22:15;;;;;;;4.22;1.55;;;;;;;;;;5053069;28;20496;-62
2024/04/07 04:24:42;;;;;;;9.38;1.83;;;;;;;;;;5060573;28;20112;-63
2024/04/07 04:27:08;;;;;;;4.30;1.65;;;;;;;;;;5052202;28;20059;-62
2024/04/07 04:29:35;;;;;;;2.75;1.42;;;;;;;;;;5051179;28;20031;-62
2024/04/07 04:32:01;;;;;;;8.52;2.25;;;;;;;;;;5056143;28;20032;-62
2024/04/07 04:34:28;;;;;;;1.83;1.67;;;;;;;;;;5067845;28;21067;-62
2024/04/07 04:36:55;;;;;;;10.02;2.30;;;;;;;;;;5060216;28;20048;-69
2024/04/07 04:39:22;;;;;;;2.15;1.35;;;;;;;;;;5061818;28;20504;-62
2024/04/07 04:41:48;;;;;;;4.88;1.75;;;;;;;;;;5054762;28;20389;-63
2024/04/07 04:44:15;;;;;;;4.57;1.38;;;;;;;;;;5057827;28;20388;-63
2024/04/07 04:46:41;;;;;;;3.38;1.35;;;;;;;;;;5057912;28;20029;-62
2024/04/07 04:49:09;;;;;;;3.03;1.60;;;;;;;;;;5061449;28;20384;-62
2024/04/07 04:51:35;;;;;;;4.20;1.48;;;;;;;;;;5048600;28;20032;-65
2024/04/07 04:54:01;;;;;;;2.65;1.50;;;;;;;;;;5055693;28;20029;-62
2024/04/07 04:56:27;;;;;;;1.10;1.10;;;;;;;;;;5051638;28;20032;-62
2024/04/07 04:58:54;;;;;;;2.67;1.35;;;;;;;;;;5057131;28;20388;-64
2024/04/07 05:01:20;;;;;;;2.08;1.65;;;;;;;;;;5053431;28;20032;-63
2024/04/07 05:03:46;;;;;;;5.53;2.58;;;;;;;;;;5062619;28;20054;-62
2024/04/07 05:06:13;;;;;;;2.58;1.55;;;;;;;;;;5056194;28;20028;-65
2024/04/07 05:08:39;;;;;;;6.97;1.90;;;;;;;;;;5052914;28;20102;-64
2024/04/07 05:11:06;;;;;;;1.88;1.58;;;;;;;;;;5052884;28;21003;-63
2024/04/07 05:13:32;;;;;;;3.40;1.67;;;;;;;;;;5059322;28;20036;-66
2024/04/07 05:15:59;;;;;;;4.25;1.77;;;;;;;;;;5055208;28;20036;-63
2024/04/07 05:18:26;;;;;;;1.48;1.25;;;;;;;;;;5058804;28;20114;-62
2024/04/07 05:20:52;;;;;;;6.28;1.65;;;;;;;;;;5055908;28;20032;-63
2024/04/07 05:23:19;;;;;;;8.30;2.38;;;;;;;;;;5058291;28;20025;-67
2024/04/07 05:25:45;;;;;;;8.02;1.58;;;;;;;;;;5053646;28;20043;-62
2024/04/07 05:28:11;;;;;;;3.65;1.50;;;;;;;;;;5056809;28;20476;-63
2024/04/07 05:30:37;;;;;;;1.45;1.40;;;;;;;;;;5056426;28;20272;-62
2024/04/07 05:33:04;;;;;;;1.15;1.15;;;;;;;;;;5049923;28;20149;-63
2024/04/07 05:35:30;;;;;;;1.17;1.17;;;;;;;;;;5048872;28;20439;-62
2024/04/07 05:37:56;;;;;;;3.30;1.30;;;;;;;;;;5053657;28;20109;-62
2024/04/07 05:40:22;;;;;;;3.40;1.58;;;;;;;;;;5059094;28;20025;-63
2024/04/07 05:42:48;;;;;;;4.57;1.33;;;;;;;;;;5060217;28;20414;-63
2024/04/07 05:45:15;;;;;;;1.65;1.10;;;;;;;;;;5059141;28;20033;-62
2024/04/07 05:47:41;;;;;;;1.27;1.25;;;;;;;;;;5051073;28;20040;-62
2024/04/07 05:50:08;;;;;;;3.25;1.15;;;;;;;;;;5058086;28;20029;-62
2024/04/07 05:52:34;;;;;;;1.20;1.10;;;;;;;;;;5060966;28;20029;-62
2024/04/07 05:55:00;;;;;;;1.40;1.30;;;;;;;;;;5057127;28;20484;-62
2024/04/07 05:57:26;;;;;;;6.55;1.58;;;;;;;;;;5063538;28;20542;-63
2024/04/07 05:59:52;;;;;;;2.05;1.55;;;;;;;;;;5056475;28;20033;-62
2024/04/07 06:02:18;;;;;;;10.30;1.80;;;;;;;;;;5056015;28;20680;-62
2024/04/07 06:04:44;;;;;;;1.42;1.40;;;;;;;;;;5059881;28;20029;-62
2024/04/07 06:07:10;;;;;;;5.40;1.42;;;;;;;;;;5057842;28;20040;-62
2024/04/07 06:09:37;;;;;;;0.95;0.95;;;;;;;;;;5054252;28;20098;-62
2024/04/07 06:12:03;;;;;;;1.20;1.10;;;;;;;;;;5056316;28;20037;-62
2024/04/07 06:14:29;;;;;;;1.85;1.65;;;;;;;;;;5063105;28;20487;-63
2024/04/07 06:16:55;;;;;;;1.10;1.10;;;;;;;;;;5057453;28;20032;-62
2024/04/07 06:19:21;;;;;;;1.30;1.30;;;;;;;;;;5051496;28;20475;-63
2024/04/07 06:21:47;;;;;;;1.17;1.17;;;;;;;;;;5061409;28;20028;-72
2024/04/07 06:24:13;;;;;;;5.38;1.33;;;;;;;;;;5057822;28;20640;-70
2024/04/07 06:26:40;;;;;;;1.52;1.38;;;;;;;;;;5070725;28;20033;-71
2024/04/07 06:29:06;;;;;;;4.68;1.95;;;;;;;;;;5056558;28;20464;-63
2024/04/07 06:31:32;;;;;;;2.20;1.65;;;;;;;;;;5054093;28;20052;-63
2024/04/07 06:33:59;;;;;;;4.30;1.45;;;;;;;;;;5056925;28;20032;-62
2024/04/07 06:36:25;;;;;;;1.40;1.30;;;;;;;;;;5059260;28;20020;-63
2024/04/07 06:38:51;;;;;;;3.83;1.85;;;;;;;;;;5058183;28;20025;-62
2024/04/07 06:41:17;;;;;;;13.27;2.00;;;;;;;;;;5052687;28;20029;-63
2024/04/07 06:43:43;;;;;;;5.63;1.70;;;;;;;;;;5056632;28;20523;-64
2024/04/07 06:46:10;;;;;;;2.65;1.40;;;;;;;;;;5060358;28;20453;-70
2024/04/07 06:48:36;;;;;;;3.60;1.52;;;;;;;;;;5059063;28;20043;-64
2024/04/07 06:51:02;;;;;;;4.57;1.52;;;;;;;;;;5057114;28;20025;-72
2024/04/07 06:53:28;;;;;;;5.80;1.90;;;;;;;;;;5058413;28;20493;-63
2024/04/07 06:55:54;;;;;;;2.78;1.35;;;;;;;;;;5060012;28;20098;-68
2024/04/07 06:58:20;;;;;;;6.05;2.20;;;;;;;;;;5060612;28;20029;-69
2024/04/07 07:00:47;;;;;;;2.33;1.40;;;;;;;;;;5056258;28;20064;-69
2024/04/07 07:03:13;;;;;;;6.07;1.70;;;;;;;;;;5056982;28;20040;-63
2024/04/07 07:05:40;;;;;;;3.10;1.60;;;;;;;;;;5054213;28;20033;-63
2024/04/07 07:08:06;;;;;;;13.30;1.92;;;;;;;;;;5057962;28;20411;-68
2024/04/07 07:10:32;;;;;;;7.30;1.77;;;;;;;;;;5062432;28;20020;-67
2024/04/07 07:12:58;;;;;;;4.07;1.52;;;;;;;;;;5061058;28;20036;-74
2024/04/07 07:15:24;;;;;;;6.90;1.85;;;;;;;;;;5065797;28;20024;-74
2024/04/07 07:17:51;;;;;;;3.80;1.75;;;;;;;;;;5058318;28;20029;-73
2024/04/07 07:20:17;;;;;;;3.67;2.42;;;;;;;;;;5067061;28;20404;-71
2024/04/07 07:22:43;;;;;;;6.55;1.92;;;;;;;;;;5062048;28;20035;-68
2024/04/07 07:25:10;;;;;;;12.95;2.55;;;;;;;;;;5061790;28;20028;-72
2024/04/07 07:27:36;;;;;;;2.90;1.52;;;;;;;;;;5085160;28;20116;-72
2024/04/07 07:30:04;;;;;;;3.58;2.00;;;;;;;;;;5067741;28;20037;-74
2024/04/07 07:32:30;;;;;;;1.73;1.63;;;;;;;;;;5065740;28;20048;-66
2024/04/07 07:34:56;;;;;;;2.03;1.48;;;;;;;;;;5061864;28;20033;-66
2024/04/07 07:37:22;;;;;;;4.85;1.60;;;;;;;;;;5060294;28;20039;-67
2024/04/07 07:39:49;;;;;;;5.47;1.73;;;;;;;;;;5063232;28;20111;-66
2024/04/07 07:42:15;;;;;;;1.63;1.35;;;;;;;;;;5060823;28;20024;-66
2024/04/07 07:44:41;;;;;;;1.73;1.60;;;;;;;;;;5059763;28;20496;-68
2024/04/07 07:47:08;;;;;;;1.60;1.30;;;;;;;;;;5057693;28;20032;-66
2024/04/07 07:49:34;;;;;;;2.05;1.90;;;;;;;;;;5062490;28;20528;-67
2024/04/07 07:52:00;;;;;;;1.65;1.55;;;;;;;;;;5069607;28;20025;-68
2024/04/07 07:54:26;;;;;;;2.50;1.35;;;;;;;;;;5076663;28;20028;-67
2024/04/07 07:56:52;;;;;;;7.20;1.52;;;;;;;;;;5058789;28;20029;-68
2024/04/07 07:59:18;;;;;;;4.18;1.58;;;;;;;;;;5081388;28;20067;-67
2024/04/07 08:01:47;;;;;;;5.82;1.65;;;;;;;;;;5058200;28;20024;-68
2024/04/07 08:04:13;;;;;;;4.78;1.33;;;;;;;;;;5060843;28;20416;-68
2024/04/07 08:06:39;;;;;;;12.23;2.10;;;;;;;;;;5062787;28;20040;-68
2024/04/07 08:09:06;;;;;;;1.40;1.30;;;;;;;;;;5060679;28;20032;-67
2024/04/07 08:11:32;;;;;;;2.55;1.73;;;;;;;;;;5059551;28;20400;-67
2024/04/07 08:13:58;;;;;;;4.50;1.58;;;;;;;;;;5058231;28;20037;-67
2024/04/07 08:16:24;;;;;;;1.52;1.23;;;;;;;;;;5060953;28;20025;-67
2024/04/07 08:18:50;;;;;;;6.70;2.47;;;;;;;;;;5057506;28;20024;-67
2024/04/07 08:21:17;;;;;;;2.00;1.33;;;;;;;;;;5057900;28;20035;-67
2024/04/07 08:23:43;;;;;;;2.38;1.45;;;;;;;;;;5063213;28;20549;-66
2024/04/07 08:26:10;;;;;;;2.78;1.52;;;;;;;;;;5061568;28;20028;-67
2024/04/07 08:28:36;;;;;;;2.78;1.70;;;;;;;;;;5056618;28;20056;-66
2024/04/07 08:31:02;;;;;;;6.53;1.25;;;;;;;;;;5062824;28;20035;-69
2024/04/07 08:33:28;;;;;;;2.22;1.50;;;;;;;;;;5058350;28;20461;-67
2024/04/07 08:35:55;;;;;;;2.42;1.52;;;;;;;;;;5066200;28;20051;-66
2024/04/07 08:38:21;;;;;;;2.35;1.50;;;;;;;;;;5059682;28;20032;-66
2024/04/07 08:40:49;;;;;;;3.35;1.50;;;;;;;;;;5061252;28;20028;-66
2024/04/07 08:43:19;;;;;;;2.40;1.63;;;;;;;;;;5061482;28;20032;-69
2024/04/07 08:45:46;;;;;;;2.25;1.70;;;;;;;;;;5062139;28;20032;-68
2024/04/07 08:48:14;;;;;;;1.73;1.63;;;;;;;;;;5067183;28;20033;-67
2024/04/07 08:50:41;;;;;;;4.68;1.42;;;;;;;;;;5065904;28;20499;-68
2024/04/07 08:53:08;;;;;;;6.43;1.95;;;;;;;;;;5055561;28;20068;-68
2024/04/07 08:55:34;;;;;;;2.20;1.58;;;;;;;;;;5058472;28;20021;-67
2024/04/07 08:58:00;;;;;;;1.40;1.30;;;;;;;;;;5054696;28;20440;-68
2024/04/07 09:00:27;;;;;;;7.55;1.92;;;;;;;;;;5053467;28;20082;-67
2024/04/07 09:02:55;;;;;;;3.47;1.98;;;;;;;;;;5067002;28;20080;-69
2024/04/07 09:05:22;;;;;;;2.25;1.35;;;;;;;;;;5059543;28;20020;-68
2024/04/07 09:07:48;;;;;;;4.90;1.38;;;;;;;;;;5055172;28;20111;-67
2024/04/07 09:10:15;;;;;;;4.60;1.80;;;;;;;;;;5061466;28;20028;-68
2024/04/07 09:12:41;;;;;;;8.05;1.60;;;;;;;;;;5064030;28;20411;-68
2024/04/07 09:15:10;;;;;;;2.97;1.70;;;;;;;;;;5059653;28;20029;-68
2024/04/07 09:17:36;;;;;;;3.80;1.50;;;;;;;;;;5066809;28;20088;-68
2024/04/07 09:20:17;;;;;;;2.05;1.38;;;;;;;;;;5071479;28;20082;-68
2024/04/07 09:22:43;;;;;;;6.88;2.08;;;;;;;;;;5064179;28;20653;-69
2024/04/07 09:25:09;;;;;;;2.35;1.60;;;;;;;;;;5064422;28;20518;-68
2024/04/07 09:27:35;;;;;;;3.97;1.58;;;;;;;;;;5060530;28;20601;-69
2024/04/07 09:30:02;;;;;;;6.13;1.90;;;;;;;;;;5063162;28;20040;-69
2024/04/07 09:32:28;;;;;;;2.72;1.67;;;;;;;;;;5063262;28;20685;-69
2024/04/07 09:34:55;;;;;;;4.25;1.83;;;;;;;;;;5066359;28;20054;-68
2024/04/07 09:37:21;;;;;;;1.65;1.50;;;;;;;;;;5064965;28;20043;-69
2024/04/07 09:39:47;;;;;;;1.85;1.75;;;;;;;;;;5062412;28;20020;-68
2024/04/07 09:42:19;;;;;;;4.45;1.50;;;;;;;;;;5064744;28;20086;-69
2024/04/07 09:44:47;;;;;;;1.60;1.50;;;;;;;;;;5061342;28;20492;-69
2024/04/07 09:47:21;;;;;;;3.55;1.70;;;;;;;;;;5066443;28;20028;-69
2024/04/07 09:49:49;;;;;;;2.33;1.90;;;;;;;;;;5063952;28;20040;-67
2024/04/07 09:52:17;;;;;;;2.15;1.65;;;;;;;;;;5064139;28;20008;-73
2024/04/07 09:54:45;;;;;;;5.15;2.85;;;;;;;;;;5064214;28;20033;-68
2024/04/07 09:57:13;;;;;;;2.22;1.95;;;;;;;;;;5065821;28;20380;-69
2024/04/07 09:59:40;;;;;;;8.18;1.85;;;;;;;;;;5065885;28;20066;-69
2024/04/07 10:02:07;;;;;;;6.72;2.17;;;;;;;;;;5062783;28;20058;-68
2024/04/07 10:04:36;;;;;;;1.73;1.58;;;;;;;;;;5058551;28;20036;-69
2024/04/07 10:07:02;;;;;;;5.82;1.50;;;;;;;;;;5063231;28;20021;-68
2024/04/07 10:09:31;;;;;;;5.70;2.30;;;;;;;;;;5062269;28;20465;-69
2024/04/07 10:11:57;;;;;;;4.07;1.77;;;;;;;;;;5066917;28;20019;-70
2024/04/07 10:14:25;;;;;;;8.23;1.90;;;;;;;;;;5068070;28;20086;-68
2024/04/07 10:16:52;;;;;;;4.32;1.80;;;;;;;;;;5066727;28;20438;-69
2024/04/07 10:19:19;;;;;;;4.88;2.75;;;;;;;;;;5065037;28;20039;-67
2024/04/07 10:21:45;;;;;;;2.35;1.38;;;;;;;;;;5065271;28;20058;-67
2024/04/07 10:24:11;;;;;;;4.05;2.00;;;;;;;;;;5060912;28;20082;-68
2024/04/07 10:26:37;;;;;;;3.60;1.63;;;;;;;;;;5061337;28;20709;-67
2024/04/07 10:29:07;;;;;;;4.57;2.17;;;;;;;;;;5064761;28;20456;-68
2024/04/07 10:31:34;;;;;;;5.53;1.98;;;;;;;;;;5066163;28;20055;-68
2024/04/07 10:34:01;;;;;;;5.28;2.13;;;;;;;;;;5067759;28;20051;-68
2024/04/07 10:36:28;;;;;;;2.85;1.42;;;;;;;;;;5072853;28;20037;-66
2024/04/07 10:38:57;;;;;;;7.78;2.17;;;;;;;;;;5067856;28;20485;-67
2024/04/07 10:41:27;;;;;;;8.52;1.85;;;;;;;;;;5069795;28;20094;-66
2024/04/07 10:43:54;;;;;;;3.47;2.05;;;;;;;;;;5066253;28;20117;-69
2024/04/07 10:46:21;;;;;;;7.32;2.40;;;;;;;;;;5064677;28;20803;-68
2024/04/07 10:48:48;;;;;;;2.50;1.90;;;;;;;;;;5066508;28;20385;-67
2024/04/07 10:51:16;;;;;;;6.82;2.00;;;;;;;;;;5063722;28;20498;-67
2024/04/07 10:53:42;;;;;;;1.77;1.60;;;;;;;;;;5064750;28;20043;-67
2024/04/07 10:56:09;;;;;;;3.47;1.70;;;;;;;;;;5064853;28;20024;-68
2024/04/07 10:58:37;;;;;;;5.22;3.08;;;;;;;;;;5065290;28;20361;-68
2024/04/07 11:01:03;;;;;;;4.00;2.13;;;;;;;;;;5065928;28;20037;-67
2024/04/07 11:03:30;;;;;;;1.77;1.67;;;;;;;;;;5063842;28;20044;-68
2024/04/07 11:06:00;;;;;;;1.70;1.60;;;;;;;;;;5065453;28;20396;-67
2024/04/07 11:08:28;;;;;;;12.18;2.00;;;;;;;;;;5065785;28;20020;-68
2024/04/07 11:10:54;;;;;;;3.10;2.30;;;;;;;;;;5068578;28;20093;-67
2024/04/07 11:13:22;;;;;;;5.28;2.47;;;;;;;;;;5070231;28;20492;-68
2024/04/07 11:15:51;;;;;;;3.20;2.63;;;;;;;;;;5068444;28;20048;-68
2024/04/07 11:18:18;;;;;;;2.42;2.13;;;;;;;;;;5062777;28;20380;-68
2024/04/07 11:20:45;;;;;;;9.45;2.42;;;;;;;;;;5073673;28;20029;-68
2024/04/07 11:23:11;;;;;;;4.55;2.13;;;;;;;;;;5077359;28;20008;-68
2024/04/07 11:25:38;;;;;;;5.80;2.72;;;;;;;;;;5073719;28;20500;-68
2024/04/07 11:28:05;;;;;;;4.78;3.50;;;;;;;;;;5073138;28;20033;-68
2024/04/07 11:30:35;;;;;;;4.32;1.70;;;;;;;;;;5077184;28;20028;-68
2024/04/07 11:33:11;;;;;;;1.75;1.65;;;;;;;;;;5069982;28;20389;-68
2024/04/07 11:35:40;;;;;;;1.25;1.20;;;;;;;;;;5073320;28;20050;-69
2024/04/07 11:38:06;;;;;;;3.10;1.40;;;;;;;;;;5088123;28;20017;-68
2024/04/07 11:40:33;;;;;;;3.03;1.85;;;;;;;;;;5073362;28;20048;-68
2024/04/07 11:43:00;;;;;;;2.97;1.42;;;;;;;;;;5066366;28;20033;-68
2024/04/07 11:45:27;;;;;;;1.77;1.60;;;;;;;;;;5077262;28;20028;-67
2024/04/07 11:47:53;;;;;;;6.55;2.20;;;;;;;;;;5073632;28;20415;-68
2024/04/07 11:50:20;;;;;;;2.20;1.80;;;;;;;;;;5076354;28;20025;-68
2024/04/07 11:52:46;;;;;;;4.53;1.48;;;;;;;;;;5071478;28;20036;-68
2024/04/07 11:55:12;;;;;;;3.25;1.40;;;;;;;;;;5064786;28;20056;-67
2024/04/07 11:57:39;;;;;;;5.25;1.75;;;;;;;;;;5060290;28;20611;-61
2024/04/07 12:00:07;;;;;;;6.38;1.60;;;;;;;;;;5057440;28;20020;-63
2024/04/07 12:02:33;;;;;;;4.55;2.03;;;;;;;;;;5058433;28;20367;-61
2024/04/07 12:04:59;;;;;;;4.80;1.60;;;;;;;;;;5059079;28;20029;-61
2024/04/07 12:07:25;;;;;;;1.38;1.35;;;;;;;;;;5058261;28;20028;-61
2024/04/07 12:09:51;;;;;;;1.35;1.30;;;;;;;;;;5059149;28;20028;-61
2024/04/07 12:12:17;;;;;;;1.00;1.00;;;;;;;;;;5059061;28;20531;-61
2024/04/07 12:14:44;;;;;;;1.40;1.40;;;;;;;;;;5057064;28;20107;-61
2024/04/07 12:17:10;;;;;;;2.20;1.60;;;;;;;;;;5057726;28;20492;-61
2024/04/07 12:19:37;;;;;;;2.20;1.40;;;;;;;;;;5058844;28;20028;-61
2024/04/07 12:22:08;;;;;;;2.45;1.60;;;;;;;;;;5062042;28;20033;-61
2024/04/07 12:24:34;;;;;;;3.33;1.80;;;;;;;;;;5062102;28;20036;-61
2024/04/07 12:27:00;;;;;;;2.00;1.73;;;;;;;;;;5059706;28;20035;-61
2024/04/07 12:29:27;;;;;;;2.13;1.50;;;;;;;;;;5072534;28;20016;-61
2024/04/07 12:31:53;;;;;;;1.83;1.40;;;;;;;;;;5061366;28;20090;-61
2024/04/07 12:34:20;;;;;;;1.35;1.35;;;;;;;;;;5061621;28;20111;-61
2024/04/07 12:36:46;;;;;;;1.80;1.60;;;;;;;;;;5044643;28;20053;-62
2024/04/07 12:39:13;;;;;;;1.42;1.42;;;;;;;;;;5050071;28;20689;-61
2024/04/07 12:41:40;;;;;;;2.50;1.60;;;;;;;;;;5055132;28;20040;-61
2024/04/07 12:44:08;;;;;;;1.30;1.30;;;;;;;;;;5061588;28;20029;-61
2024/04/07 12:46:34;;;;;;;2.15;1.70;;;;;;;;;;5053922;28;20047;-62
2024/04/07 12:49:00;;;;;;;1.60;1.50;;;;;;;;;;5058538;28;20028;-68
2024/04/07 12:51:29;;;;;;;2.25;1.67;;;;;;;;;;5052316;28;20715;-68
2024/04/07 12:53:55;;;;;;;1.40;1.40;;;;;;;;;;5053907;28;20045;-63
2024/04/07 12:56:22;;;;;;;2.13;1.60;;;;;;;;;;5054778;28;20428;-63
2024/04/07 12:58:51;;;;;;;2.70;1.73;;;;;;;;;;5063016;28;20032;-66
2024/04/07 13:01:27;;;;;;;1.92;1.75;;;;;;;;;;5063793;28;20202;-66
2024/04/07 13:03:53;;;;;;;1.48;1.48;;;;;;;;;;5056558;28;20127;-67
2024/04/07 13:06:19;;;;;;;5.07;1.90;;;;;;;;;;5060836;28;20024;-67
2024/04/07 13:08:46;;;;;;;2.97;2.20;;;;;;;;;;5070320;28;20029;-67
2024/04/07 13:11:13;;;;;;;4.15;1.92;;;;;;;;;;5067064;28;20508;-68
2024/04/07 13:13:40;;;;;;;2.17;1.80;;;;;;;;;;5062386;28;20262;-68
2024/04/07 13:16:07;;;;;;;1.40;1.30;;;;;;;;;;5058236;28;20029;-67
2024/04/07 13:18:33;;;;;;;2.22;1.60;;;;;;;;;;5060175;28;20998;-67
2024/04/07 13:20:59;;;;;;;1.85;1.75;;;;;;;;;;5052539;28;20033;-67
2024/04/07 13:23:26;;;;;;;1.98;1.60;;;;;;;;;;5058425;28;20029;-67
2024/04/07 13:25:54;;;;;;;5.55;1.80;;;;;;;;;;5054727;28;20056;-71
2024/04/07 13:28:21;;;;;;;4.63;2.17;;;;;;;;;;5064273;28;20671;-71
2024/04/07 13:30:47;;;;;;;2.20;1.95;;;;;;;;;;5069190;28;20040;-72
2024/04/07 13:33:14;;;;;;;3.80;1.67;;;;;;;;;;5070437;28;20037;-68
2024/04/07 13:35:41;;;;;;;1.83;1.67;;;;;;;;;;5055088;28;20078;-66
2024/04/07 13:38:10;;;;;;;1.73;1.63;;;;;;;;;;5054218;28;20027;-66
2024/04/07 13:40:36;;;;;;;3.42;1.88;;;;;;;;;;5065563;28;20051;-66
2024/04/07 13:43:02;;;;;;;2.15;1.48;;;;;;;;;;5067784;28;20024;-66
2024/04/07 13:45:30;;;;;;;3.72;1.80;;;;;;;;;;5058259;28;20107;-67
2024/04/07 13:47:57;;;;;;;4.28;1.70;;;;;;;;;;5066107;28;20045;-66
2024/04/07 13:50:24;;;;;;;2.67;1.77;;;;;;;;;;5064844;28;20036;-67
2024/04/07 13:52:50;;;;;;;1.70;1.60;;;;;;;;;;5061346;28;20309;-67
2024/04/07 13:55:17;;;;;;;1.45;1.25;;;;;;;;;;5052919;28;20416;-67
2024/04/07 13:57:43;;;;;;;1.23;1.13;;;;;;;;;;5052906;28;20634;-67
2024/04/07 14:00:12;;;;;;;4.07;2.25;;;;;;;;;;5053669;28;20028;-67
2024/04/07 14:02:39;;;;;;;4.40;1.33;;;;;;;;;;5056585;28;20049;-68
2024/04/07 14:05:06;;;;;;;1.10;1.10;;;;;;;;;;5058869;28;20582;-70
2024/04/07 14:07:32;;;;;;;1.38;1.13;;;;;;;;;;5061809;28;20161;-65
2024/04/07 14:09:58;;;;;;;3.15;1.15;;;;;;;;;;5060333;28;20040;-67
2024/04/07 14:12:25;;;;;;;1.13;1.05;;;;;;;;;;5062154;28;20028;-64
2024/04/07 14:14:51;;;;;;;3.83;1.75;;;;;;;;;;5062590;28;20083;-64
2024/04/07 14:17:17;;;;;;;1.70;1.55;;;;;;;;;;5055289;28;20460;-68
2024/04/07 14:19:43;;;;;;;3.08;1.73;;;;;;;;;;5058880;28;20035;-65
2024/04/07 14:22:10;;;;;;;4.63;2.20;;;;;;;;;;5063426;28;20492;-67
2024/04/07 14:24:36;;;;;;;3.20;2.45;;;;;;;;;;5056615;28;20673;-67
2024/04/07 14:27:05;;;;;;;3.22;2.10;;;;;;;;;;5060022;28;20036;-65
2024/04/07 14:29:31;;;;;;;5.05;2.53;;;;;;;;;;5063700;28;20033;-68
2024/04/07 14:31:57;;;;;;;8.60;2.58;;;;;;;;;;5057281;28;20464;-65
2024/04/07 14:34:23;;;;;;;8.20;3.60;;;;;;;;;;5060026;28;20059;-66
2024/04/07 14:36:50;;;;;;;6.40;4.10;;;;;;;;;;5054291;28;20056;-67
2024/04/07 14:39:16;;;;;;;2.60;2.40;;;;;;;;;;5051041;28;20017;-67
2024/04/07 14:41:42;;;;;;;1.75;1.65;;;;;;;;;;5057928;28;20473;-69